sensor_id;sensor_type;location;lat;lon;timestamp;P1;durP1;ratioP1;P2;durP2;ratioP2
14276;SDS011;7222;57.346;12.150;2022-10-12T00:00:44;7.00;;;1.90;;
14276;SDS011;7222;57.346;12.150;2022-10-12T00:03:11;7.33;;;2.23;;
14276;SDS011;7222;57.346;12.150;2022-10-12T00:05:39;8.83;;;2.80;;
14276;SDS011;7222;57.346;12.150;2022-10-12T00:08:08;8.77;;;2.10;;
14276;SDS011;7222;57.346;12.150;2022-10-12T00:10:38;7.37;;;2.43;;
14276;SDS011;7222;57.346;12.150;2022-10-12T00:13:06;9.13;;;2.80;;
14276;SDS011;7222;57.346;12.150;2022-10-12T00:15:35;9.70;;;3.03;;
14276;SDS011;7222;57.346;12.150;2022-10-12T00:18:02;13.73;;;4.03;;
14276;SDS011;7222;57.346;12.150;2022-10-12T00:20:29;17.33;;;3.20;;
14276;SDS011;7222;57.346;12.150;2022-10-12T00:22:57;10.87;;;3.30;;
14276;SDS011;7222;57.346;12.150;2022-10-12T00:25:24;14.97;;;3.00;;
14276;SDS011;7222;57.346;12.150;2022-10-12T00:27:52;14.97;;;3.70;;
14276;SDS011;7222;57.346;12.150;2022-10-12T00:30:19;14.63;;;3.53;;
14276;SDS011;7222;57.346;12.150;2022-10-12T00:32:46;11.80;;;3.17;;
14276;SDS011;7222;57.346;12.150;2022-10-12T00:35:13;17.60;;;3.30;;
14276;SDS011;7222;57.346;12.150;2022-10-12T00:37:40;12.23;;;3.63;;
14276;SDS011;7222;57.346;12.150;2022-10-12T00:40:09;12.70;;;3.63;;
14276;SDS011;7222;57.346;12.150;2022-10-12T00:42:36;14.23;;;2.93;;
14276;SDS011;7222;57.346;12.150;2022-10-12T00:45:04;8.47;;;2.50;;
14276;SDS011;7222;57.346;12.150;2022-10-12T00:47:32;12.10;;;2.90;;
14276;SDS011;7222;57.346;12.150;2022-10-12T00:50:02;14.97;;;3.17;;
14276;SDS011;7222;57.346;12.150;2022-10-12T00:52:35;13.93;;;3.17;;
14276;SDS011;7222;57.346;12.150;2022-10-12T00:55:06;9.83;;;3.23;;
14276;SDS011;7222;57.346;12.150;2022-10-12T00:57:40;12.90;;;3.33;;
14276;SDS011;7222;57.346;12.150;2022-10-12T01:00:07;10.37;;;2.53;;
14276;SDS011;7222;57.346;12.150;2022-10-12T01:02:36;10.70;;;3.23;;
14276;SDS011;7222;57.346;12.150;2022-10-12T01:05:06;12.70;;;3.63;;
14276;SDS011;7222;57.346;12.150;2022-10-12T01:07:34;11.90;;;2.93;;
14276;SDS011;7222;57.346;12.150;2022-10-12T01:10:01;11.40;;;2.73;;
14276;SDS011;7222;57.346;12.150;2022-10-12T01:12:29;12.17;;;3.30;;
14276;SDS011;7222;57.346;12.150;2022-10-12T01:14:57;16.53;;;2.77;;
14276;SDS011;7222;57.346;12.150;2022-10-12T01:17:28;14.30;;;3.53;;
14276;SDS011;7222;57.346;12.150;2022-10-12T01:20:09;11.47;;;3.80;;
14276;SDS011;7222;57.346;12.150;2022-10-12T01:23:03;12.43;;;3.30;;
14276;SDS011;7222;57.346;12.150;2022-10-12T01:25:48;14.40;;;3.40;;
14276;SDS011;7222;57.346;12.150;2022-10-12T01:28:33;12.27;;;3.17;;
14276;SDS011;7222;57.346;12.150;2022-10-12T01:31:10;9.80;;;2.30;;
14276;SDS011;7222;57.346;12.150;2022-10-12T01:33:47;10.10;;;3.00;;
14276;SDS011;7222;57.346;12.150;2022-10-12T01:36:18;17.50;;;3.87;;
14276;SDS011;7222;57.346;12.150;2022-10-12T01:38:53;9.03;;;2.63;;
14276;SDS011;7222;57.346;12.150;2022-10-12T01:41:25;12.70;;;2.87;;
14276;SDS011;7222;57.346;12.150;2022-10-12T01:43:57;9.23;;;2.20;;
14276;SDS011;7222;57.346;12.150;2022-10-12T01:46:44;12.30;;;2.77;;
14276;SDS011;7222;57.346;12.150;2022-10-12T01:49:13;13.60;;;3.40;;
14276;SDS011;7222;57.346;12.150;2022-10-12T01:54:45;12.43;;;2.90;;
14276;SDS011;7222;57.346;12.150;2022-10-12T01:57:32;13.00;;;3.40;;
14276;SDS011;7222;57.346;12.150;2022-10-12T02:00:07;8.90;;;2.40;;
14276;SDS011;7222;57.346;12.150;2022-10-12T02:02:40;10.97;;;3.40;;
14276;SDS011;7222;57.346;12.150;2022-10-12T02:05:17;8.93;;;2.17;;
14276;SDS011;7222;57.346;12.150;2022-10-12T02:07:50;11.20;;;3.07;;
14276;SDS011;7222;57.346;12.150;2022-10-12T02:10:23;7.83;;;2.10;;
14276;SDS011;7222;57.346;12.150;2022-10-12T02:12:53;13.23;;;2.73;;
14276;SDS011;7222;57.346;12.150;2022-10-12T02:15:23;11.70;;;3.10;;
14276;SDS011;7222;57.346;12.150;2022-10-12T02:17:53;13.20;;;2.70;;
14276;SDS011;7222;57.346;12.150;2022-10-12T02:20:22;10.10;;;2.27;;
14276;SDS011;7222;57.346;12.150;2022-10-12T02:22:52;10.57;;;2.87;;
14276;SDS011;7222;57.346;12.150;2022-10-12T02:25:21;7.20;;;2.37;;
14276;SDS011;7222;57.346;12.150;2022-10-12T02:27:53;9.17;;;2.50;;
14276;SDS011;7222;57.346;12.150;2022-10-12T02:30:25;8.10;;;2.60;;
14276;SDS011;7222;57.346;12.150;2022-10-12T02:32:55;8.00;;;2.37;;
14276;SDS011;7222;57.346;12.150;2022-10-12T02:35:30;7.23;;;2.40;;
14276;SDS011;7222;57.346;12.150;2022-10-12T02:38:02;9.80;;;2.47;;
14276;SDS011;7222;57.346;12.150;2022-10-12T02:40:35;8.00;;;2.13;;
14276;SDS011;7222;57.346;12.150;2022-10-12T02:43:07;9.47;;;2.37;;
14276;SDS011;7222;57.346;12.150;2022-10-12T02:45:40;13.30;;;2.47;;
14276;SDS011;7222;57.346;12.150;2022-10-12T02:48:12;9.40;;;2.50;;
14276;SDS011;7222;57.346;12.150;2022-10-12T02:50:42;10.43;;;2.43;;
14276;SDS011;7222;57.346;12.150;2022-10-12T02:53:11;9.83;;;2.53;;
14276;SDS011;7222;57.346;12.150;2022-10-12T02:55:45;6.57;;;2.07;;
14276;SDS011;7222;57.346;12.150;2022-10-12T02:58:14;7.63;;;1.77;;
14276;SDS011;7222;57.346;12.150;2022-10-12T03:00:41;8.27;;;2.07;;
14276;SDS011;7222;57.346;12.150;2022-10-12T03:03:08;7.90;;;2.33;;
14276;SDS011;7222;57.346;12.150;2022-10-12T03:05:36;8.33;;;2.53;;
14276;SDS011;7222;57.346;12.150;2022-10-12T03:08:03;7.37;;;2.30;;
14276;SDS011;7222;57.346;12.150;2022-10-12T03:10:30;6.33;;;1.70;;
14276;SDS011;7222;57.346;12.150;2022-10-12T03:12:57;5.10;;;1.90;;
14276;SDS011;7222;57.346;12.150;2022-10-12T03:15:24;5.37;;;1.67;;
14276;SDS011;7222;57.346;12.150;2022-10-12T03:17:51;6.53;;;1.70;;
14276;SDS011;7222;57.346;12.150;2022-10-12T03:20:18;5.53;;;1.90;;
14276;SDS011;7222;57.346;12.150;2022-10-12T03:22:47;4.63;;;1.57;;
14276;SDS011;7222;57.346;12.150;2022-10-12T03:25:14;4.73;;;1.80;;
14276;SDS011;7222;57.346;12.150;2022-10-12T03:27:41;5.17;;;1.93;;
14276;SDS011;7222;57.346;12.150;2022-10-12T03:30:09;6.73;;;2.00;;
14276;SDS011;7222;57.346;12.150;2022-10-12T03:32:37;7.17;;;2.10;;
14276;SDS011;7222;57.346;12.150;2022-10-12T03:35:04;8.10;;;2.20;;
14276;SDS011;7222;57.346;12.150;2022-10-12T03:37:32;6.90;;;1.60;;
14276;SDS011;7222;57.346;12.150;2022-10-12T03:40:00;7.30;;;1.77;;
14276;SDS011;7222;57.346;12.150;2022-10-12T03:42:27;5.53;;;1.70;;
14276;SDS011;7222;57.346;12.150;2022-10-12T03:44:54;4.33;;;1.80;;
14276;SDS011;7222;57.346;12.150;2022-10-12T03:47:21;4.37;;;1.30;;
14276;SDS011;7222;57.346;12.150;2022-10-12T03:49:48;6.20;;;1.70;;
14276;SDS011;7222;57.346;12.150;2022-10-12T03:52:15;7.97;;;1.77;;
14276;SDS011;7222;57.346;12.150;2022-10-12T03:54:42;5.80;;;1.90;;
14276;SDS011;7222;57.346;12.150;2022-10-12T03:57:11;4.53;;;1.77;;
14276;SDS011;7222;57.346;12.150;2022-10-12T03:59:38;7.20;;;2.10;;
14276;SDS011;7222;57.346;12.150;2022-10-12T04:02:05;9.67;;;2.00;;
14276;SDS011;7222;57.346;12.150;2022-10-12T04:04:32;6.17;;;1.70;;
14276;SDS011;7222;57.346;12.150;2022-10-12T04:06:59;6.83;;;1.97;;
14276;SDS011;7222;57.346;12.150;2022-10-12T04:09:26;6.10;;;1.17;;
14276;SDS011;7222;57.346;12.150;2022-10-12T04:11:53;3.30;;;1.00;;
14276;SDS011;7222;57.346;12.150;2022-10-12T04:14:22;2.73;;;1.30;;
14276;SDS011;7222;57.346;12.150;2022-10-12T04:16:49;9.07;;;1.50;;
14276;SDS011;7222;57.346;12.150;2022-10-12T04:19:18;7.27;;;1.80;;
14276;SDS011;7222;57.346;12.150;2022-10-12T04:21:45;5.13;;;1.23;;
14276;SDS011;7222;57.346;12.150;2022-10-12T04:24:12;10.00;;;1.80;;
14276;SDS011;7222;57.346;12.150;2022-10-12T04:26:39;6.30;;;1.93;;
14276;SDS011;7222;57.346;12.150;2022-10-12T04:29:06;5.83;;;1.70;;
14276;SDS011;7222;57.346;12.150;2022-10-12T04:31:35;7.53;;;1.60;;
14276;SDS011;7222;57.346;12.150;2022-10-12T04:34:02;3.53;;;1.60;;
14276;SDS011;7222;57.346;12.150;2022-10-12T04:36:29;3.53;;;1.30;;
14276;SDS011;7222;57.346;12.150;2022-10-12T04:38:56;4.07;;;1.37;;
14276;SDS011;7222;57.346;12.150;2022-10-12T04:41:23;4.87;;;1.67;;
14276;SDS011;7222;57.346;12.150;2022-10-12T04:43:51;4.30;;;1.10;;
14276;SDS011;7222;57.346;12.150;2022-10-12T04:46:18;1.97;;;1.20;;
14276;SDS011;7222;57.346;12.150;2022-10-12T04:48:46;3.80;;;1.10;;
14276;SDS011;7222;57.346;12.150;2022-10-12T04:51:13;3.67;;;1.10;;
14276;SDS011;7222;57.346;12.150;2022-10-12T04:53:40;3.43;;;1.47;;
14276;SDS011;7222;57.346;12.150;2022-10-12T04:56:08;4.67;;;1.03;;
14276;SDS011;7222;57.346;12.150;2022-10-12T04:58:35;6.10;;;1.50;;
14276;SDS011;7222;57.346;12.150;2022-10-12T05:01:02;5.53;;;1.63;;
14276;SDS011;7222;57.346;12.150;2022-10-12T05:03:30;3.83;;;1.30;;
14276;SDS011;7222;57.346;12.150;2022-10-12T05:05:58;4.80;;;1.30;;
14276;SDS011;7222;57.346;12.150;2022-10-12T05:08:25;4.20;;;1.47;;
14276;SDS011;7222;57.346;12.150;2022-10-12T05:10:52;5.97;;;1.40;;
14276;SDS011;7222;57.346;12.150;2022-10-12T05:13:22;5.23;;;1.90;;
14276;SDS011;7222;57.346;12.150;2022-10-12T05:15:49;5.73;;;1.47;;
14276;SDS011;7222;57.346;12.150;2022-10-12T05:18:16;7.70;;;1.87;;
14276;SDS011;7222;57.346;12.150;2022-10-12T05:20:43;4.73;;;1.60;;
14276;SDS011;7222;57.346;12.150;2022-10-12T05:23:11;6.07;;;1.53;;
14276;SDS011;7222;57.346;12.150;2022-10-12T05:25:38;3.53;;;1.57;;
14276;SDS011;7222;57.346;12.150;2022-10-12T05:28:05;4.30;;;1.67;;
14276;SDS011;7222;57.346;12.150;2022-10-12T05:30:33;6.67;;;1.73;;
14276;SDS011;7222;57.346;12.150;2022-10-12T05:33:00;6.83;;;1.60;;
14276;SDS011;7222;57.346;12.150;2022-10-12T05:35:27;6.67;;;2.10;;
14276;SDS011;7222;57.346;12.150;2022-10-12T05:37:54;8.17;;;1.97;;
14276;SDS011;7222;57.346;12.150;2022-10-12T05:40:23;4.30;;;1.50;;
14276;SDS011;7222;57.346;12.150;2022-10-12T05:42:50;5.63;;;1.30;;
14276;SDS011;7222;57.346;12.150;2022-10-12T05:45:17;5.03;;;2.13;;
14276;SDS011;7222;57.346;12.150;2022-10-12T05:47:44;3.03;;;1.57;;
14276;SDS011;7222;57.346;12.150;2022-10-12T05:50:11;2.77;;;1.03;;
14276;SDS011;7222;57.346;12.150;2022-10-12T05:52:38;3.20;;;1.37;;
14276;SDS011;7222;57.346;12.150;2022-10-12T05:55:05;8.50;;;2.27;;
14276;SDS011;7222;57.346;12.150;2022-10-12T05:57:34;8.63;;;1.90;;
14276;SDS011;7222;57.346;12.150;2022-10-12T06:00:02;10.10;;;2.20;;
14276;SDS011;7222;57.346;12.150;2022-10-12T06:02:30;6.33;;;2.50;;
14276;SDS011;7222;57.346;12.150;2022-10-12T06:04:57;11.17;;;2.73;;
14276;SDS011;7222;57.346;12.150;2022-10-12T06:07:25;8.83;;;3.60;;
14276;SDS011;7222;57.346;12.150;2022-10-12T06:09:52;13.00;;;2.80;;
14276;SDS011;7222;57.346;12.150;2022-10-12T06:12:19;7.33;;;2.20;;
14276;SDS011;7222;57.346;12.150;2022-10-12T06:14:49;7.63;;;3.00;;
14276;SDS011;7222;57.346;12.150;2022-10-12T06:17:16;7.63;;;2.20;;
14276;SDS011;7222;57.346;12.150;2022-10-12T06:19:43;8.87;;;2.73;;
14276;SDS011;7222;57.346;12.150;2022-10-12T06:22:10;8.57;;;2.63;;
14276;SDS011;7222;57.346;12.150;2022-10-12T06:24:37;10.37;;;2.80;;
14276;SDS011;7222;57.346;12.150;2022-10-12T06:27:04;9.63;;;2.37;;
14276;SDS011;7222;57.346;12.150;2022-10-12T06:29:31;9.53;;;2.93;;
14276;SDS011;7222;57.346;12.150;2022-10-12T06:32:01;9.10;;;2.90;;
14276;SDS011;7222;57.346;12.150;2022-10-12T06:34:28;9.43;;;2.43;;
14276;SDS011;7222;57.346;12.150;2022-10-12T06:36:55;7.80;;;2.57;;
14276;SDS011;7222;57.346;12.150;2022-10-12T06:39:22;9.00;;;2.23;;
14276;SDS011;7222;57.346;12.150;2022-10-12T06:41:50;8.73;;;2.50;;
14276;SDS011;7222;57.346;12.150;2022-10-12T06:44:18;7.97;;;2.63;;
14276;SDS011;7222;57.346;12.150;2022-10-12T06:46:46;9.83;;;2.67;;
14276;SDS011;7222;57.346;12.150;2022-10-12T06:49:15;10.80;;;3.40;;
14276;SDS011;7222;57.346;12.150;2022-10-12T06:51:42;10.80;;;3.03;;
14276;SDS011;7222;57.346;12.150;2022-10-12T06:54:09;7.17;;;2.60;;
14276;SDS011;7222;57.346;12.150;2022-10-12T06:56:37;8.80;;;2.50;;
14276;SDS011;7222;57.346;12.150;2022-10-12T06:59:04;10.00;;;2.17;;
14276;SDS011;7222;57.346;12.150;2022-10-12T07:01:31;5.83;;;2.07;;
14276;SDS011;7222;57.346;12.150;2022-10-12T07:03:58;13.10;;;2.73;;
14276;SDS011;7222;57.346;12.150;2022-10-12T07:06:26;14.00;;;2.70;;
14276;SDS011;7222;57.346;12.150;2022-10-12T07:08:54;10.87;;;2.90;;
14276;SDS011;7222;57.346;12.150;2022-10-12T07:11:21;10.03;;;3.20;;
14276;SDS011;7222;57.346;12.150;2022-10-12T07:13:48;8.87;;;2.63;;
14276;SDS011;7222;57.346;12.150;2022-10-12T07:16:15;9.27;;;2.30;;
14276;SDS011;7222;57.346;12.150;2022-10-12T07:18:42;8.03;;;2.40;;
14276;SDS011;7222;57.346;12.150;2022-10-12T07:21:09;10.20;;;2.53;;
14276;SDS011;7222;57.346;12.150;2022-10-12T07:23:37;8.37;;;2.50;;
14276;SDS011;7222;57.346;12.150;2022-10-12T07:26:04;10.17;;;2.50;;
14276;SDS011;7222;57.346;12.150;2022-10-12T07:28:32;7.43;;;2.07;;
14276;SDS011;7222;57.346;12.150;2022-10-12T07:31:00;7.47;;;2.20;;
14276;SDS011;7222;57.346;12.150;2022-10-12T07:33:31;7.87;;;2.23;;
14276;SDS011;7222;57.346;12.150;2022-10-12T07:35:59;7.03;;;2.80;;
14276;SDS011;7222;57.346;12.150;2022-10-12T07:38:27;4.67;;;1.83;;
14276;SDS011;7222;57.346;12.150;2022-10-12T07:40:58;6.73;;;2.07;;
14276;SDS011;7222;57.346;12.150;2022-10-12T07:43:25;11.47;;;2.87;;
14276;SDS011;7222;57.346;12.150;2022-10-12T07:45:52;9.33;;;2.73;;
14276;SDS011;7222;57.346;12.150;2022-10-12T07:48:20;9.07;;;2.20;;
14276;SDS011;7222;57.346;12.150;2022-10-12T07:50:47;8.57;;;2.90;;
14276;SDS011;7222;57.346;12.150;2022-10-12T07:53:15;6.23;;;2.80;;
14276;SDS011;7222;57.346;12.150;2022-10-12T07:55:42;9.23;;;2.77;;
14276;SDS011;7222;57.346;12.150;2022-10-12T07:58:10;10.67;;;2.33;;
14276;SDS011;7222;57.346;12.150;2022-10-12T08:00:37;9.40;;;2.60;;
14276;SDS011;7222;57.346;12.150;2022-10-12T08:03:05;8.87;;;2.63;;
14276;SDS011;7222;57.346;12.150;2022-10-12T08:05:32;8.07;;;2.47;;
14276;SDS011;7222;57.346;12.150;2022-10-12T08:08:02;9.50;;;2.43;;
14276;SDS011;7222;57.346;12.150;2022-10-12T08:10:32;6.30;;;2.27;;
14276;SDS011;7222;57.346;12.150;2022-10-12T08:12:59;7.37;;;2.80;;
14276;SDS011;7222;57.346;12.150;2022-10-12T08:15:28;8.80;;;2.37;;
14276;SDS011;7222;57.346;12.150;2022-10-12T08:17:55;12.93;;;2.50;;
14276;SDS011;7222;57.346;12.150;2022-10-12T08:20:22;6.10;;;1.73;;
14276;SDS011;7222;57.346;12.150;2022-10-12T08:22:49;7.97;;;2.30;;
14276;SDS011;7222;57.346;12.150;2022-10-12T08:25:16;7.37;;;2.10;;
14276;SDS011;7222;57.346;12.150;2022-10-12T08:27:43;8.13;;;2.53;;
14276;SDS011;7222;57.346;12.150;2022-10-12T08:30:10;5.70;;;1.80;;
14276;SDS011;7222;57.346;12.150;2022-10-12T08:32:39;8.63;;;2.43;;
14276;SDS011;7222;57.346;12.150;2022-10-12T08:35:06;7.33;;;2.33;;
14276;SDS011;7222;57.346;12.150;2022-10-12T08:37:33;7.60;;;2.03;;
14276;SDS011;7222;57.346;12.150;2022-10-12T08:40:00;8.57;;;2.20;;
14276;SDS011;7222;57.346;12.150;2022-10-12T08:42:36;7.47;;;2.40;;
14276;SDS011;7222;57.346;12.150;2022-10-12T08:48:06;4.87;;;2.27;;
14276;SDS011;7222;57.346;12.150;2022-10-12T08:50:38;7.97;;;2.07;;
14276;SDS011;7222;57.346;12.150;2022-10-12T08:53:12;8.67;;;2.30;;
14276;SDS011;7222;57.346;12.150;2022-10-12T08:55:44;6.77;;;2.27;;
14276;SDS011;7222;57.346;12.150;2022-10-12T08:58:14;8.23;;;1.83;;
14276;SDS011;7222;57.346;12.150;2022-10-12T09:00:45;7.63;;;2.50;;
14276;SDS011;7222;57.346;12.150;2022-10-12T09:03:19;7.67;;;2.30;;
14276;SDS011;7222;57.346;12.150;2022-10-12T09:05:57;7.93;;;2.10;;
14276;SDS011;7222;57.346;12.150;2022-10-12T09:08:33;13.80;;;3.30;;
14276;SDS011;7222;57.346;12.150;2022-10-12T09:11:15;9.47;;;2.40;;
14276;SDS011;7222;57.346;12.150;2022-10-12T09:14:01;13.70;;;3.70;;
14276;SDS011;7222;57.346;12.150;2022-10-12T09:16:33;10.53;;;3.10;;
14276;SDS011;7222;57.346;12.150;2022-10-12T09:19:08;7.93;;;2.10;;
14276;SDS011;7222;57.346;12.150;2022-10-12T09:21:42;6.13;;;2.27;;
14276;SDS011;7222;57.346;12.150;2022-10-12T09:24:18;7.73;;;2.30;;
14276;SDS011;7222;57.346;12.150;2022-10-12T09:26:49;7.90;;;2.20;;
14276;SDS011;7222;57.346;12.150;2022-10-12T09:29:21;9.00;;;1.97;;
14276;SDS011;7222;57.346;12.150;2022-10-12T09:34:43;7.63;;;2.43;;
14276;SDS011;7222;57.346;12.150;2022-10-12T09:37:12;5.53;;;1.90;;
14276;SDS011;7222;57.346;12.150;2022-10-12T09:39:44;9.63;;;2.70;;
14276;SDS011;7222;57.346;12.150;2022-10-12T09:42:11;8.27;;;2.37;;
14276;SDS011;7222;57.346;12.150;2022-10-12T09:44:39;9.60;;;2.50;;
14276;SDS011;7222;57.346;12.150;2022-10-12T09:47:22;6.87;;;2.23;;
14276;SDS011;7222;57.346;12.150;2022-10-12T09:49:53;11.27;;;2.53;;
14276;SDS011;7222;57.346;12.150;2022-10-12T09:52:23;8.80;;;2.80;;
14276;SDS011;7222;57.346;12.150;2022-10-12T09:54:54;7.30;;;2.13;;
14276;SDS011;7222;57.346;12.150;2022-10-12T09:57:24;9.97;;;2.50;;
14276;SDS011;7222;57.346;12.150;2022-10-12T09:59:54;8.03;;;2.27;;
14276;SDS011;7222;57.346;12.150;2022-10-12T10:02:22;7.70;;;2.10;;
14276;SDS011;7222;57.346;12.150;2022-10-12T10:04:50;12.23;;;2.77;;
14276;SDS011;7222;57.346;12.150;2022-10-12T10:07:24;7.30;;;2.07;;
14276;SDS011;7222;57.346;12.150;2022-10-12T10:10:04;7.43;;;2.40;;
14276;SDS011;7222;57.346;12.150;2022-10-12T10:12:39;10.63;;;2.60;;
14276;SDS011;7222;57.346;12.150;2022-10-12T10:15:17;8.10;;;2.10;;
14276;SDS011;7222;57.346;12.150;2022-10-12T10:17:47;9.50;;;2.40;;
14276;SDS011;7222;57.346;12.150;2022-10-12T10:20:24;9.60;;;2.47;;
14276;SDS011;7222;57.346;12.150;2022-10-12T10:22:54;8.70;;;2.50;;
14276;SDS011;7222;57.346;12.150;2022-10-12T10:25:22;8.23;;;2.80;;
14276;SDS011;7222;57.346;12.150;2022-10-12T10:27:50;8.07;;;2.57;;
14276;SDS011;7222;57.346;12.150;2022-10-12T10:30:54;7.93;;;2.67;;
14276;SDS011;7222;57.346;12.150;2022-10-12T10:33:25;7.27;;;2.27;;
14276;SDS011;7222;57.346;12.150;2022-10-12T10:36:00;8.10;;;2.73;;
14276;SDS011;7222;57.346;12.150;2022-10-12T10:38:31;5.93;;;2.20;;
14276;SDS011;7222;57.346;12.150;2022-10-12T10:41:12;8.67;;;2.20;;
14276;SDS011;7222;57.346;12.150;2022-10-12T10:43:43;9.57;;;2.50;;
14276;SDS011;7222;57.346;12.150;2022-10-12T10:46:13;6.87;;;2.57;;
14276;SDS011;7222;57.346;12.150;2022-10-12T10:48:47;5.07;;;2.03;;
14276;SDS011;7222;57.346;12.150;2022-10-12T10:51:18;8.70;;;2.70;;
14276;SDS011;7222;57.346;12.150;2022-10-12T10:53:46;9.13;;;2.90;;
14276;SDS011;7222;57.346;12.150;2022-10-12T10:56:16;10.20;;;2.50;;
14276;SDS011;7222;57.346;12.150;2022-10-12T10:58:49;7.17;;;2.93;;
14276;SDS011;7222;57.346;12.150;2022-10-12T11:01:18;6.47;;;2.40;;
14276;SDS011;7222;57.346;12.150;2022-10-12T11:03:51;8.67;;;2.47;;
14276;SDS011;7222;57.346;12.150;2022-10-12T11:06:31;6.37;;;1.93;;
14276;SDS011;7222;57.346;12.150;2022-10-12T11:09:04;6.27;;;1.83;;
14276;SDS011;7222;57.346;12.150;2022-10-12T11:11:36;10.17;;;3.10;;
14276;SDS011;7222;57.346;12.150;2022-10-12T11:14:08;4.83;;;2.10;;
14276;SDS011;7222;57.346;12.150;2022-10-12T11:16:40;6.30;;;2.37;;
14276;SDS011;7222;57.346;12.150;2022-10-12T11:19:22;5.23;;;2.13;;
14276;SDS011;7222;57.346;12.150;2022-10-12T11:21:58;6.50;;;2.40;;
14276;SDS011;7222;57.346;12.150;2022-10-12T11:24:31;7.63;;;1.90;;
14276;SDS011;7222;57.346;12.150;2022-10-12T11:27:06;9.80;;;2.83;;
14276;SDS011;7222;57.346;12.150;2022-10-12T11:29:38;4.10;;;2.00;;
14276;SDS011;7222;57.346;12.150;2022-10-12T11:32:05;7.70;;;2.50;;
14276;SDS011;7222;57.346;12.150;2022-10-12T11:34:44;7.60;;;2.33;;
14276;SDS011;7222;57.346;12.150;2022-10-12T11:37:19;8.13;;;2.70;;
14276;SDS011;7222;57.346;12.150;2022-10-12T11:39:51;9.00;;;2.23;;
14276;SDS011;7222;57.346;12.150;2022-10-12T11:42:37;7.30;;;2.30;;
14276;SDS011;7222;57.346;12.150;2022-10-12T11:45:14;7.93;;;2.03;;
14276;SDS011;7222;57.346;12.150;2022-10-12T11:47:45;6.97;;;2.03;;
14276;SDS011;7222;57.346;12.150;2022-10-12T11:50:22;8.00;;;2.10;;
14276;SDS011;7222;57.346;12.150;2022-10-12T11:52:56;5.50;;;1.80;;
14276;SDS011;7222;57.346;12.150;2022-10-12T11:55:31;6.13;;;2.13;;
14276;SDS011;7222;57.346;12.150;2022-10-12T11:58:09;5.20;;;2.23;;
14276;SDS011;7222;57.346;12.150;2022-10-12T12:00:48;5.27;;;2.23;;
14276;SDS011;7222;57.346;12.150;2022-10-12T12:03:32;6.43;;;2.07;;
14276;SDS011;7222;57.346;12.150;2022-10-12T12:09:19;5.10;;;1.83;;
14276;SDS011;7222;57.346;12.150;2022-10-12T12:12:06;5.53;;;1.80;;
14276;SDS011;7222;57.346;12.150;2022-10-12T12:17:28;5.17;;;1.97;;
14276;SDS011;7222;57.346;12.150;2022-10-12T12:19:56;7.93;;;2.30;;
14276;SDS011;7222;57.346;12.150;2022-10-12T12:22:26;5.50;;;2.03;;
14276;SDS011;7222;57.346;12.150;2022-10-12T12:25:04;5.40;;;1.87;;
14276;SDS011;7222;57.346;12.150;2022-10-12T12:27:42;8.07;;;2.03;;
14276;SDS011;7222;57.346;12.150;2022-10-12T12:30:29;10.53;;;2.63;;
14276;SDS011;7222;57.346;12.150;2022-10-12T12:33:05;10.87;;;2.13;;
14276;SDS011;7222;57.346;12.150;2022-10-12T12:35:51;6.13;;;2.03;;
14276;SDS011;7222;57.346;12.150;2022-10-12T12:38:22;11.53;;;2.43;;
14276;SDS011;7222;57.346;12.150;2022-10-12T12:40:59;5.67;;;2.20;;
14276;SDS011;7222;57.346;12.150;2022-10-12T12:49:37;5.37;;;2.27;;
14276;SDS011;7222;57.346;12.150;2022-10-12T12:52:10;5.60;;;1.80;;
14276;SDS011;7222;57.346;12.150;2022-10-12T12:54:59;4.00;;;1.77;;
14276;SDS011;7222;57.346;12.150;2022-10-12T12:58:04;5.53;;;2.03;;
14276;SDS011;7222;57.346;12.150;2022-10-12T13:00:44;5.20;;;1.90;;
14276;SDS011;7222;57.346;12.150;2022-10-12T13:09:39;6.43;;;2.20;;
14276;SDS011;7222;57.346;12.150;2022-10-12T13:12:29;6.33;;;2.00;;
14276;SDS011;7222;57.346;12.150;2022-10-12T13:18:20;5.03;;;1.80;;
14276;SDS011;7222;57.346;12.150;2022-10-12T13:21:01;7.87;;;2.07;;
14276;SDS011;7222;57.346;12.150;2022-10-12T13:23:32;6.57;;;2.00;;
14276;SDS011;7222;57.346;12.150;2022-10-12T13:26:01;7.47;;;1.90;;
14276;SDS011;7222;57.346;12.150;2022-10-12T13:28:31;7.10;;;2.37;;
14276;SDS011;7222;57.346;12.150;2022-10-12T13:31:06;7.90;;;2.33;;
14276;SDS011;7222;57.346;12.150;2022-10-12T13:33:39;5.30;;;2.00;;
14276;SDS011;7222;57.346;12.150;2022-10-12T13:36:16;6.13;;;2.23;;
14276;SDS011;7222;57.346;12.150;2022-10-12T13:38:46;6.33;;;2.20;;
14276;SDS011;7222;57.346;12.150;2022-10-12T13:41:19;6.40;;;2.20;;
14276;SDS011;7222;57.346;12.150;2022-10-12T13:43:50;5.33;;;1.80;;
14276;SDS011;7222;57.346;12.150;2022-10-12T13:46:38;7.83;;;2.27;;
14276;SDS011;7222;57.346;12.150;2022-10-12T13:49:14;6.50;;;2.07;;
14276;SDS011;7222;57.346;12.150;2022-10-12T13:51:43;7.03;;;2.60;;
14276;SDS011;7222;57.346;12.150;2022-10-12T13:54:15;7.63;;;2.17;;
14276;SDS011;7222;57.346;12.150;2022-10-12T13:56:43;7.10;;;1.93;;
14276;SDS011;7222;57.346;12.150;2022-10-12T13:59:12;5.83;;;2.10;;
14276;SDS011;7222;57.346;12.150;2022-10-12T14:01:48;9.10;;;2.00;;
14276;SDS011;7222;57.346;12.150;2022-10-12T14:04:16;5.83;;;2.20;;
14276;SDS011;7222;57.346;12.150;2022-10-12T14:06:46;8.67;;;2.10;;
14276;SDS011;7222;57.346;12.150;2022-10-12T14:09:18;6.67;;;2.33;;
14276;SDS011;7222;57.346;12.150;2022-10-12T14:11:47;6.17;;;2.00;;
14276;SDS011;7222;57.346;12.150;2022-10-12T14:14:17;8.83;;;2.20;;
14276;SDS011;7222;57.346;12.150;2022-10-12T14:16:51;6.97;;;2.17;;
14276;SDS011;7222;57.346;12.150;2022-10-12T14:19:19;5.43;;;1.90;;
14276;SDS011;7222;57.346;12.150;2022-10-12T14:21:57;5.43;;;2.30;;
14276;SDS011;7222;57.346;12.150;2022-10-12T14:24:25;6.20;;;2.20;;
14276;SDS011;7222;57.346;12.150;2022-10-12T14:26:53;5.57;;;2.10;;
14276;SDS011;7222;57.346;12.150;2022-10-12T14:35:19;5.67;;;1.60;;
14276;SDS011;7222;57.346;12.150;2022-10-12T14:37:57;7.10;;;2.43;;
14276;SDS011;7222;57.346;12.150;2022-10-12T14:40:26;6.93;;;2.17;;
14276;SDS011;7222;57.346;12.150;2022-10-12T14:42:59;6.07;;;2.10;;
14276;SDS011;7222;57.346;12.150;2022-10-12T14:45:29;8.20;;;2.30;;
14276;SDS011;7222;57.346;12.150;2022-10-12T14:47:58;8.23;;;2.50;;
14276;SDS011;7222;57.346;12.150;2022-10-12T14:50:27;5.00;;;2.03;;
14276;SDS011;7222;57.346;12.150;2022-10-12T14:52:55;5.20;;;2.20;;
14276;SDS011;7222;57.346;12.150;2022-10-12T14:55:25;6.57;;;2.10;;
14276;SDS011;7222;57.346;12.150;2022-10-12T14:57:53;6.83;;;2.10;;
14276;SDS011;7222;57.346;12.150;2022-10-12T15:00:21;7.77;;;2.20;;
14276;SDS011;7222;57.346;12.150;2022-10-12T15:02:50;7.97;;;2.10;;
14276;SDS011;7222;57.346;12.150;2022-10-12T15:05:20;6.83;;;2.47;;
14276;SDS011;7222;57.346;12.150;2022-10-12T15:07:49;7.30;;;2.57;;
14276;SDS011;7222;57.346;12.150;2022-10-12T15:10:17;9.40;;;2.60;;
14276;SDS011;7222;57.346;12.150;2022-10-12T15:12:46;8.50;;;2.50;;
14276;SDS011;7222;57.346;12.150;2022-10-12T15:15:17;7.23;;;2.20;;
14276;SDS011;7222;57.346;12.150;2022-10-12T15:17:51;10.23;;;2.33;;
14276;SDS011;7222;57.346;12.150;2022-10-12T15:20:20;5.63;;;2.40;;
14276;SDS011;7222;57.346;12.150;2022-10-12T15:22:47;7.97;;;2.40;;
14276;SDS011;7222;57.346;12.150;2022-10-12T15:25:15;9.67;;;2.20;;
14276;SDS011;7222;57.346;12.150;2022-10-12T15:27:45;7.63;;;2.80;;
14276;SDS011;7222;57.346;12.150;2022-10-12T15:30:13;7.30;;;2.53;;
14276;SDS011;7222;57.346;12.150;2022-10-12T15:32:41;6.93;;;2.50;;
14276;SDS011;7222;57.346;12.150;2022-10-12T15:35:18;9.27;;;2.90;;
14276;SDS011;7222;57.346;12.150;2022-10-12T15:37:48;7.47;;;2.53;;
14276;SDS011;7222;57.346;12.150;2022-10-12T15:40:16;7.67;;;2.83;;
14276;SDS011;7222;57.346;12.150;2022-10-12T15:42:45;6.17;;;2.80;;